Time;durP1;ratioP1;P1;durP2;ratioP2;P2;SDS_P1;SDS_P2;PMS_P1;PMS_P2;Temp;Humidity;BMP_temperature;BMP_pressure;BME280_temperature;BME280_humidity;BME280_pressure;Samples;Min_cycle;Max_cycle;Signal;HPM_P1;HPM_P2
2022/03/10 00:02:07;;;;;;;17.50;8.43;;;;;;;1.24;76.48;97272.06;5008563;28;20042;-71
2022/03/10 00:04:34;;;;;;;15.85;8.23;;;;;;;1.44;74.78;97275.13;5008997;28;20073;-71
2022/03/10 00:07:02;;;;;;;16.58;7.80;;;;;;;1.59;72.01;97273.44;5007303;28;20493;-73
2022/03/10 00:09:29;;;;;;;14.38;7.75;;;;;;;1.64;70.94;97275.56;5008305;28;20033;-74
2022/03/10 00:11:55;;;;;;;16.77;8.30;;;;;;;1.65;71.01;97264.84;5010647;28;20037;-71
2022/03/10 00:14:20;;;;;;;16.80;8.05;;;;;;;1.75;69.24;97269.88;5010338;28;20092;-74
2022/03/10 00:16:46;;;;;;;15.35;8.48;;;;;;;1.84;68.37;97263.56;5040196;28;20520;-73
2022/03/10 00:19:12;;;;;;;17.50;7.80;;;;;;;1.80;68.95;97264.91;5006993;28;20041;-73
2022/03/10 00:21:38;;;;;;;12.18;6.25;;;;;;;1.79;70.39;97271.19;5008273;28;20643;-73
2022/03/10 00:24:05;;;;;;;15.88;7.50;;;;;;;1.70;67.69;97272.22;5014285;28;20034;-71
2022/03/10 00:26:30;;;;;;;16.05;7.57;;;;;;;1.55;71.81;97276.56;5009741;28;20517;-72
2022/03/10 00:28:56;;;;;;;15.98;7.55;;;;;;;1.44;73.91;97282.22;5008586;28;20038;-73
2022/03/10 00:31:23;;;;;;;26.52;8.32;;;;;;;1.21;76.55;97279.50;5008508;28;20038;-71
2022/03/10 00:33:49;;;;;;;21.70;7.88;;;;;;;1.14;75.62;97274.09;5009677;28;20380;-71
2022/03/10 00:36:15;;;;;;;15.43;7.30;;;;;;;1.16;76.44;97285.28;5008769;28;20034;-72
2022/03/10 00:38:41;;;;;;;14.93;7.35;;;;;;;1.08;78.38;97285.31;5005811;28;20100;-71
2022/03/10 00:41:09;;;;;;;18.92;7.28;;;;;;;1.04;78.29;97294.56;5009943;28;20049;-71
2022/03/10 00:43:34;;;;;;;13.65;7.10;;;;;;;0.95;79.07;97288.47;5009848;28;20512;-71
2022/03/10 00:46:00;;;;;;;16.33;7.20;;;;;;;0.89;80.40;97285.69;5011471;28;20041;-72
2022/03/10 00:48:25;;;;;;;15.95;7.40;;;;;;;0.88;80.31;97287.50;5006700;28;20073;-74
2022/03/10 00:50:51;;;;;;;15.98;7.60;;;;;;;0.90;79.09;97298.69;5006356;28;20042;-72
2022/03/10 00:53:16;;;;;;;13.90;7.43;;;;;;;0.79;81.59;97289.31;5009415;28;20048;-72
2022/03/10 00:55:45;;;;;;;16.45;8.05;;;;;;;0.69;82.50;97307.09;5006880;28;20369;-71
2022/03/10 00:58:10;;;;;;;13.82;7.45;;;;;;;0.66;82.57;97296.09;5006835;28;20115;-71
2022/03/10 01:00:36;;;;;;;15.43;7.18;;;;;;;0.61;83.59;97295.75;5007288;28;20615;-74
2022/03/10 01:03:03;;;;;;;15.73;7.07;;;;;;;0.56;83.90;97304.16;5005595;28;20033;-72
2022/03/10 01:05:29;;;;;;;16.20;7.00;;;;;;;0.50;83.91;97302.19;5008522;28;20306;-73
2022/03/10 01:07:54;;;;;;;14.68;7.15;;;;;;;0.47;84.50;97305.16;5011072;28;20084;-73
2022/03/10 01:10:20;;;;;;;15.18;7.97;;;;;;;0.40;85.60;97305.00;5008490;28;20380;-72
2022/03/10 01:12:46;;;;;;;8.48;4.40;;;;;;;0.39;87.26;97307.75;5008492;28;20321;-74
2022/03/10 01:15:17;;;;;;;12.77;6.25;;;;;;;0.31;87.35;97313.84;5009057;28;20075;-74
2022/03/10 01:17:43;;;;;;;15.23;6.68;;;;;;;0.23;88.58;97308.56;5010736;28;20049;-71
2022/03/10 01:20:09;;;;;;;18.83;7.10;;;;;;;0.19;88.22;97313.34;5009829;28;20675;-71
2022/03/10 01:22:35;;;;;;;13.32;6.47;;;;;;;0.17;88.35;97310.06;5008597;28;20052;-71
2022/03/10 01:25:01;;;;;;;20.27;7.13;;;;;;;0.20;87.30;97304.47;5007687;28;20033;-71
2022/03/10 01:27:27;;;;;;;10.93;6.20;;;;;;;0.20;88.83;97308.91;5010879;28;20038;-73
2022/03/10 01:29:52;;;;;;;18.67;7.43;;;;;;;0.19;88.49;97307.25;5007103;28;20053;-71
2022/03/10 01:32:17;;;;;;;17.23;7.78;;;;;;;0.19;87.96;97304.63;5010727;28;20067;-74
2022/03/10 01:34:43;;;;;;;11.18;5.70;;;;;;;0.18;88.84;97305.63;5009902;28;20466;-74
2022/03/10 01:37:08;;;;;;;19.35;7.75;;;;;;;0.25;88.17;97309.25;5006896;28;20394;-74
2022/03/10 01:39:34;;;;;;;12.65;6.43;;;;;;;0.26;89.00;97306.44;5007226;28;20041;-72
2022/03/10 01:42:01;;;;;;;12.32;6.00;;;;;;;0.29;88.38;97318.47;5006846;28;20078;-74
2022/03/10 01:44:26;;;;;;;15.55;7.35;;;;;;;0.32;87.01;97318.16;5009511;28;20037;-70
2022/03/10 01:46:52;;;;;;;14.55;6.78;;;;;;;0.31;86.23;97308.56;5010642;28;20057;-74
2022/03/10 01:49:19;;;;;;;13.95;6.65;;;;;;;0.43;84.09;97309.91;5006327;28;20156;-71
2022/03/10 01:51:46;;;;;;;12.93;6.38;;;;;;;0.60;83.06;97309.91;5007684;28;20048;-71
2022/03/10 01:54:11;;;;;;;16.08;6.47;;;;;;;0.70;81.41;97306.13;5007605;28;20052;-71
2022/03/10 01:56:38;;;;;;;11.77;6.47;;;;;;;0.82;80.15;97310.06;5009165;28;20038;-75
2022/03/10 01:59:04;;;;;;;11.30;6.32;;;;;;;0.83;80.38;97301.16;5006632;28;20493;-74
2022/03/10 02:01:31;;;;;;;10.85;5.90;;;;;;;0.89;79.13;97301.50;5007368;28;20450;-71
2022/03/10 02:03:57;;;;;;;14.50;6.45;;;;;;;1.03;75.28;97296.38;5009080;28;20037;-71
2022/03/10 02:06:24;;;;;;;12.02;6.13;;;;;;;1.14;74.17;97294.34;5007864;28;20037;-71
2022/03/10 02:11:36;;;;;;;11.15;5.35;;;;;;;1.39;71.55;97283.56;5006516;28;20068;-71
2022/03/10 02:17:19;;;;;;;15.57;5.70;;;;;;;1.45;70.95;97283.88;5004902;28;20026;-71
2022/03/10 02:19:31;;;;;;;23.48;7.50;;;;;;;1.33;71.99;97291.34;5004132;28;20065;-72
2022/03/10 02:21:57;;;;;;;13.32;6.30;;;;;;;1.26;72.77;97285.94;5004101;28;20113;-74
2022/03/10 02:24:24;;;;;;;13.88;6.15;;;;;;;1.25;74.32;97286.94;5005374;28;20037;-72
2022/03/10 02:26:49;;;;;;;15.20;5.53;;;;;;;1.21;73.24;97277.69;5005218;28;20080;-73
2022/03/10 02:29:16;;;;;;;16.27;6.47;;;;;;;1.22;73.12;97276.69;5007850;28;20083;-71
2022/03/10 02:31:42;;;;;;;12.45;6.13;;;;;;;1.16;74.24;97280.00;5007543;28;20037;-71
2022/03/10 02:34:10;;;;;;;15.52;6.85;;;;;;;1.09;75.50;97279.06;5006653;28;20053;-73
2022/03/10 02:36:36;;;;;;;15.23;7.30;;;;;;;1.07;76.22;97281.03;5006846;28;20387;-71
2022/03/10 02:39:01;;;;;;;9.85;5.80;;;;;;;0.97;77.12;97288.31;5005091;28;20049;-71
2022/03/10 02:41:27;;;;;;;13.05;6.05;;;;;;;0.89;79.00;97298.88;5007006;28;20030;-73
2022/03/10 02:43:52;;;;;;;14.80;7.45;;;;;;;0.78;79.54;97292.97;5006237;28;20064;-70
2022/03/10 02:46:18;;;;;;;11.93;5.72;;;;;;;0.78;79.37;97292.97;5007601;28;20033;-71
2022/03/10 02:48:43;;;;;;;15.10;6.93;;;;;;;0.76;80.31;97291.47;5004403;28;20468;-73
2022/03/10 02:51:09;;;;;;;19.05;6.80;;;;;;;0.70;79.95;97290.34;5004682;28;20041;-71
2022/03/10 02:53:34;;;;;;;16.35;7.05;;;;;;;0.69;81.21;97288.66;5004359;28;20045;-71
2022/03/10 02:56:00;;;;;;;14.05;6.95;;;;;;;0.68;80.93;97294.09;5005909;28;20038;-74
2022/03/10 02:58:25;;;;;;;10.13;4.57;;;;;;;0.86;78.60;97283.38;5008183;28;20358;-70
2022/03/10 03:00:51;;;;;;;13.63;6.57;;;;;;;0.93;77.24;97286.97;5010224;28;20076;-71
2022/03/10 03:03:16;;;;;;;11.63;5.95;;;;;;;0.97;78.05;97290.94;5009392;28;20068;-72
2022/03/10 03:05:42;;;;;;;17.85;6.68;;;;;;;1.01;75.67;97290.44;5010185;28;20037;-73
2022/03/10 03:08:08;;;;;;;14.05;6.60;;;;;;;1.01;76.15;97292.22;5010707;28;20040;-71
2022/03/10 03:10:36;;;;;;;17.25;7.13;;;;;;;0.97;77.44;97289.13;5041954;28;20034;-71
2022/03/10 03:13:05;;;;;;;14.25;6.43;;;;;;;0.89;77.38;97293.59;5013901;28;20048;-70
2022/03/10 03:15:30;;;;;;;14.48;6.53;;;;;;;0.93;77.56;97292.25;5008566;28;20083;-73
2022/03/10 03:17:57;;;;;;;18.40;7.15;;;;;;;0.95;75.65;97288.47;5012235;28;20400;-73
2022/03/10 03:20:22;;;;;;;11.80;6.03;;;;;;;1.05;76.26;97288.28;5009898;28;20121;-71
2022/03/10 03:22:48;;;;;;;13.43;6.50;;;;;;;1.04;75.03;97298.00;5008676;28;20086;-71
2022/03/10 03:25:14;;;;;;;16.13;6.93;;;;;;;0.94;76.02;97297.38;5007508;28;20026;-73
2022/03/10 03:27:41;;;;;;;12.98;6.13;;;;;;;1.00;75.38;97293.22;5009030;28;20076;-72
2022/03/10 03:30:08;;;;;;;14.38;5.88;;;;;;;1.02;75.49;97284.19;5010212;28;20068;-73
2022/03/10 03:32:34;;;;;;;12.27;6.97;;;;;;;1.00;75.80;97290.59;5010024;28;20465;-70
2022/03/10 03:34:59;;;;;;;14.65;6.70;;;;;;;0.97;76.30;97286.50;5009329;28;20101;-71
2022/03/10 03:37:25;;;;;;;15.93;7.20;;;;;;;1.03;74.96;97283.19;5009722;28;20464;-71
2022/03/10 03:39:50;;;;;;;13.95;6.85;;;;;;;0.97;75.68;97286.50;5009004;28;20527;-71
2022/03/10 03:42:16;;;;;;;16.15;6.15;;;;;;;0.98;75.72;97287.31;5007699;28;20432;-72
2022/03/10 03:44:41;;;;;;;13.73;5.28;;;;;;;0.90;76.75;97282.06;5008512;28;20054;-70
2022/03/10 03:47:07;;;;;;;16.80;6.30;;;;;;;0.88;77.47;97281.41;5008019;28;20052;-71
2022/03/10 03:49:32;;;;;;;17.33;6.57;;;;;;;0.84;77.92;97281.72;5009951;28;20042;-71
2022/03/10 03:51:58;;;;;;;13.57;6.38;;;;;;;0.80;79.59;97285.69;5006336;28;20034;-71
2022/03/10 03:54:24;;;;;;;16.77;7.90;;;;;;;0.85;76.46;97282.53;5041427;28;20100;-70
2022/03/10 03:56:50;;;;;;;14.40;6.78;;;;;;;0.99;76.01;97286.31;5006436;28;20046;-73
2022/03/10 03:59:15;;;;;;;16.00;7.10;;;;;;;0.96;76.68;97290.13;5010692;28;20042;-72
2022/03/10 04:01:41;;;;;;;13.90;6.63;;;;;;;0.82;78.80;97296.06;5006607;28;20472;-71
2022/03/10 04:04:07;;;;;;;15.40;6.63;;;;;;;0.66;80.98;97296.91;5004848;28;20391;-72
2022/03/10 04:06:32;;;;;;;11.50;5.57;;;;;;;0.40;84.54;97294.47;5007644;28;20096;-71
2022/03/10 04:08:58;;;;;;;12.90;6.32;;;;;;;0.20;86.19;97296.56;5009424;28;20096;-73
2022/03/10 04:11:23;;;;;;;11.48;6.32;;;;;;;0.13;86.95;97300.00;5009218;28;20033;-74
2022/03/10 04:13:49;;;;;;;13.00;6.22;;;;;;;0.07;88.02;97287.50;5008614;28;20415;-71
2022/03/10 04:16:14;;;;;;;15.93;7.10;;;;;;;0.05;88.32;97297.38;5009843;28;20040;-71
2022/03/10 04:18:40;;;;;;;11.35;5.70;;;;;;;-0.11;89.46;97285.00;5007487;28;20052;-70
2022/03/10 04:21:05;;;;;;;12.63;5.35;;;;;;;-0.08;89.26;97296.03;5006083;28;20038;-70
2022/03/10 04:23:31;;;;;;;11.48;5.97;;;;;;;-0.10;90.15;97300.63;5008255;28;20123;-73
2022/03/10 04:25:57;;;;;;;14.60;6.40;;;;;;;-0.12;90.46;97293.88;5011174;28;20429;-71
2022/03/10 04:28:22;;;;;;;9.02;5.47;;;;;;;-0.12;90.32;97301.78;5006999;28;20127;-70
2022/03/10 04:30:48;;;;;;;11.43;6.22;;;;;;;-0.09;89.60;97293.56;5039740;28;20033;-70
2022/03/10 04:33:14;;;;;;;18.30;6.88;;;;;;;-0.02;89.05;97289.28;5007549;28;20052;-71
2022/03/10 04:35:40;;;;;;;12.18;5.65;;;;;;;-0.02;88.87;97289.28;5006033;28;20025;-71
2022/03/10 04:38:07;;;;;;;16.90;8.18;;;;;;;-0.06;88.63;97290.63;5006060;28;20065;-72
2022/03/10 04:40:33;;;;;;;17.80;8.02;;;;;;;-0.15;89.40;97302.13;5007768;28;20041;-71
2022/03/10 04:42:58;;;;;;;18.10;7.72;;;;;;;-0.19;89.70;97292.88;5008801;28;20479;-71
2022/03/10 04:45:24;;;;;;;17.55;7.78;;;;;;;-0.14;89.83;97295.88;5007470;28;20041;-70
2022/03/10 04:47:52;;;;;;;17.77;7.93;;;;;;;-0.03;88.49;97303.44;5006737;28;20057;-73
2022/03/10 04:50:18;;;;;;;17.83;8.13;;;;;;;-0.01;87.99;97306.72;5007805;28;20041;-72
2022/03/10 04:52:44;;;;;;;17.42;8.25;;;;;;;-0.05;88.58;97313.31;5009364;28;20545;-70
2022/03/10 04:55:12;;;;;;;15.75;7.70;;;;;;;-0.06;88.63;97309.03;5006103;28;20056;-71
2022/03/10 04:57:39;;;;;;;19.92;8.30;;;;;;;-0.08;88.58;97306.56;5009479;28;20050;-71
2022/03/10 05:00:10;;;;;;;19.55;8.43;;;;;;;-0.10;88.60;97313.78;5006002;28;20041;-73
2022/03/10 05:02:40;;;;;;;18.00;8.27;;;;;;;-0.18;88.85;97310.31;5006900;28;20046;-70
2022/03/10 05:05:07;;;;;;;18.25;8.15;;;;;;;-0.17;90.69;97304.06;5007561;28;20037;-73
2022/03/10 05:07:33;;;;;;;18.23;7.57;;;;;;;-0.18;90.29;97311.13;5008993;28;20046;-70
2022/03/10 05:09:59;;;;;;;19.00;8.65;;;;;;;-0.15;89.72;97315.25;5005252;28;20034;-71
2022/03/10 05:12:25;;;;;;;20.58;7.43;;;;;;;-0.17;90.24;97311.94;5008496;28;20044;-71
2022/03/10 05:14:51;;;;;;;15.30;7.47;;;;;;;-0.18;90.40;97316.38;5009075;28;20116;-70
2022/03/10 05:17:17;;;;;;;16.50;7.75;;;;;;;-0.25;91.62;97320.63;5007734;28;20029;-74
2022/03/10 05:19:42;;;;;;;15.85;7.88;;;;;;;-0.25;91.17;97309.28;5003752;28;20033;-71
2022/03/10 05:22:08;;;;;;;19.23;8.40;;;;;;;-0.27;90.61;97306.84;5006525;28;20065;-72
2022/03/10 05:24:34;;;;;;;18.25;8.70;;;;;;;-0.16;90.60;97317.03;5009598;28;20488;-71
2022/03/10 05:27:00;;;;;;;22.45;8.63;;;;;;;-0.13;90.42;97321.19;5040650;28;20048;-70
2022/03/10 05:29:26;;;;;;;14.52;5.82;;;;;;;-0.01;89.28;97317.25;5007864;28;20372;-70
2022/03/10 05:31:52;;;;;;;16.92;8.00;;;;;;;0.04;88.44;97314.16;5005288;28;20092;-70
2022/03/10 05:34:17;;;;;;;19.90;8.50;;;;;;;0.08;88.98;97321.56;5008146;28;20456;-70
2022/03/10 05:36:43;;;;;;;24.98;9.23;;;;;;;0.08;88.48;97326.84;5008943;28;20030;-71
2022/03/10 05:39:09;;;;;;;18.92;7.97;;;;;;;0.06;88.36;97330.59;5006405;28;20045;-70
2022/03/10 05:41:34;;;;;;;15.73;6.75;;;;;;;-0.04;89.62;97328.09;5011007;28;20033;-70
2022/03/10 05:44:00;;;;;;;15.68;7.60;;;;;;;-0.11;90.46;97342.88;5005439;28;20533;-70
2022/03/10 05:46:25;;;;;;;13.88;6.55;;;;;;;-0.18;91.55;97339.25;5008355;28;20362;-70
2022/03/10 05:48:51;;;;;;;19.00;9.32;;;;;;;-0.14;91.08;97337.97;5006524;28;20066;-70
2022/03/10 05:51:16;;;;;;;18.92;9.68;;;;;;;-0.19;92.53;97345.50;5004769;28;20168;-71
2022/03/10 05:53:42;;;;;;;24.92;10.88;;;;;;;-0.18;92.38;97344.50;5006103;28;20710;-72
2022/03/10 05:56:07;;;;;;;24.30;12.25;;;;;;;-0.18;92.23;97341.88;5039063;28;20116;-70
2022/03/10 05:58:33;;;;;;;22.50;10.30;;;;;;;-0.20;91.59;97344.66;5010645;28;20044;-73
2022/03/10 06:00:59;;;;;;;22.13;11.02;;;;;;;-0.18;91.77;97347.97;5011296;28;20039;-70
2022/03/10 06:03:24;;;;;;;21.50;9.68;;;;;;;-0.24;92.98;97353.03;5005676;28;20504;-72
2022/03/10 06:05:50;;;;;;;21.85;9.00;;;;;;;-0.30;94.19;97357.97;5007729;28;20244;-72
2022/03/10 06:08:15;;;;;;;16.48;7.25;;;;;;;-0.35;94.60;97357.59;5004369;28;20409;-73
2022/03/10 06:10:41;;;;;;;24.33;8.68;;;;;;;-0.35;94.86;97365.50;5008262;28;20442;-71
2022/03/10 06:13:07;;;;;;;16.88;8.25;;;;;;;-0.38;95.63;97357.94;5007844;28;20034;-71
2022/03/10 06:15:33;;;;;;;19.23;8.18;;;;;;;-0.37;95.89;97364.00;5007655;28;20059;-71
2022/03/10 06:17:58;;;;;;;14.85;7.18;;;;;;;-0.33;95.93;97370.59;5006251;28;20538;-70
2022/03/10 06:20:25;;;;;;;19.83;7.47;;;;;;;-0.25;95.69;97368.00;5006137;28;20137;-71
2022/03/10 06:22:52;;;;;;;22.08;9.20;;;;;;;-0.21;95.25;97358.81;5008494;28;20096;-73
2022/03/10 06:25:17;;;;;;;17.13;5.40;;;;;;;-0.16;94.34;97367.03;5005766;28;20584;-72
2022/03/10 06:27:43;;;;;;;18.42;9.20;;;;;;;-0.06;92.80;97356.41;5007531;28;20117;-73
2022/03/10 06:30:09;;;;;;;22.10;9.50;;;;;;;0.01;92.16;97354.78;5008519;28;20038;-72
2022/03/10 06:32:34;;;;;;;16.98;8.02;;;;;;;0.08;92.04;97355.78;5011846;28;20346;-73
2022/03/10 06:35:00;;;;;;;16.70;9.05;;;;;;;0.22;90.54;97360.41;5010987;28;20049;-72
2022/03/10 06:37:27;;;;;;;20.50;8.70;;;;;;;0.27;90.38;97363.38;5011532;28;20048;-71
2022/03/10 06:39:52;;;;;;;20.23;8.85;;;;;;;0.32;90.46;97364.72;5009457;28;20072;-70
2022/03/10 06:42:18;;;;;;;16.88;7.93;;;;;;;0.39;89.80;97358.66;5007666;28;20029;-71
2022/03/10 06:44:45;;;;;;;19.00;7.97;;;;;;;0.56;88.55;97359.47;5011431;28;20552;-70
2022/03/10 06:47:12;;;;;;;14.43;6.95;;;;;;;0.68;87.59;97357.31;5024530;28;20053;-73
2022/03/10 06:49:38;;;;;;;17.50;7.95;;;;;;;0.88;87.17;97355.19;5009235;28;20050;-72
2022/03/10 06:52:04;;;;;;;15.07;8.00;;;;;;;0.87;86.68;97361.47;5007851;28;20092;-73
2022/03/10 06:54:29;;;;;;;15.00;7.35;;;;;;;0.95;88.02;97361.44;5011011;28;20041;-71
2022/03/10 06:56:55;;;;;;;21.73;6.88;;;;;;;0.98;87.86;97358.47;5010748;28;20049;-71
2022/03/10 06:59:20;;;;;;;19.05;9.15;;;;;;;1.07;85.91;97366.19;5008496;28;20077;-72
2022/03/10 07:01:46;;;;;;;17.92;8.48;;;;;;;1.23;84.75;97364.53;5010874;28;20041;-71
2022/03/10 07:04:11;;;;;;;21.48;8.13;;;;;;;1.37;83.89;97364.66;5007693;28;20457;-72
2022/03/10 07:06:37;;;;;;;13.45;6.45;;;;;;;1.55;83.03;97364.44;5012804;28;20092;-70
2022/03/10 07:09:03;;;;;;;12.10;6.53;;;;;;;1.71;82.69;97365.38;5012139;28;20037;-73
2022/03/10 07:11:28;;;;;;;14.60;6.55;;;;;;;1.80;81.89;97367.84;5012437;28;20123;-71
2022/03/10 07:13:54;;;;;;;18.25;7.45;;;;;;;1.86;81.33;97368.97;5010832;28;20049;-72
2022/03/10 07:16:19;;;;;;;13.10;6.00;;;;;;;1.94;81.63;97375.03;5013809;28;20037;-70
2022/03/10 07:18:50;;;;;;;17.70;7.90;;;;;;;2.08;79.68;97370.00;5010651;28;20432;-72
2022/03/10 07:21:21;;;;;;;13.85;6.63;;;;;;;2.14;79.62;97356.13;5012450;28;20413;-72
2022/03/10 07:23:48;;;;;;;11.98;6.00;;;;;;;2.27;78.86;97364.31;5011382;28;20404;-73
2022/03/10 07:26:14;;;;;;;10.48;5.47;;;;;;;2.42;78.43;97365.22;5010553;28;20288;-72
2022/03/10 07:28:40;;;;;;;15.70;7.95;;;;;;;2.51;76.92;97372.09;5011350;28;20064;-71
2022/03/10 07:31:06;;;;;;;17.00;7.40;;;;;;;2.57;78.25;97372.34;5009900;28;20041;-71
2022/03/10 07:33:32;;;;;;;12.98;6.00;;;;;;;2.68;76.24;97371.97;5010915;28;20397;-70
2022/03/10 07:35:57;;;;;;;15.25;6.32;;;;;;;2.80;75.73;97373.19;5011262;28;20158;-70
2022/03/10 07:38:23;;;;;;;17.60;6.80;;;;;;;2.87;75.38;97370.66;5010801;28;20326;-70
2022/03/10 07:40:49;;;;;;;12.23;5.00;;;;;;;3.01;72.78;97375.16;5008178;28;20117;-70
2022/03/10 07:43:15;;;;;;;14.48;6.55;;;;;;;3.16;71.46;97377.84;5011306;28;20039;-71
2022/03/10 07:45:40;;;;;;;10.25;4.63;;;;;;;3.22;69.29;97380.59;5008392;28;20061;-71
2022/03/10 07:48:06;;;;;;;15.65;7.07;;;;;;;3.30;69.48;97383.16;5009330;28;20492;-71
2022/03/10 07:50:31;;;;;;;12.73;5.60;;;;;;;3.38;70.36;97381.44;5010696;28;20041;-73
2022/03/10 07:52:57;;;;;;;10.80;5.95;;;;;;;3.49;68.09;97373.88;5010894;28;20713;-71
2022/03/10 07:55:23;;;;;;;15.60;5.80;;;;;;;3.57;68.80;97383.56;5011716;28;20030;-71
2022/03/10 07:57:49;;;;;;;13.80;6.63;;;;;;;3.61;69.19;97385.66;5042630;28;20046;-70
2022/03/10 08:00:15;;;;;;;11.95;6.07;;;;;;;3.74;67.45;97377.09;5040028;28;20376;-70
2022/03/10 08:02:41;;;;;;;20.33;7.35;;;;;;;3.80;68.10;97372.88;5011172;28;20535;-71
2022/03/10 08:05:08;;;;;;;13.43;5.20;;;;;;;3.89;67.32;97369.13;5009762;28;20399;-73
2022/03/10 08:07:34;;;;;;;12.10;6.07;;;;;;;4.01;66.42;97377.44;5012292;28;20041;-72
2022/03/10 08:10:04;;;;;;;14.85;7.07;;;;;;;4.06;67.53;97369.78;5014131;28;20091;-70
2022/03/10 08:12:31;;;;;;;13.13;5.95;;;;;;;4.19;64.85;97367.25;5010040;28;20045;-71
2022/03/10 08:14:57;;;;;;;11.07;5.65;;;;;;;4.25;63.77;97360.41;5010305;28;20388;-70
2022/03/10 08:17:23;;;;;;;12.32;6.68;;;;;;;4.30;65.04;97369.44;5009320;28;20469;-70
2022/03/10 08:19:48;;;;;;;11.52;5.72;;;;;;;4.35;65.92;97366.22;5009570;28;20040;-70
2022/03/10 08:22:17;;;;;;;15.80;7.40;;;;;;;4.49;65.15;97368.00;5012847;28;20404;-70
2022/03/10 08:24:46;;;;;;;24.35;8.02;;;;;;;4.52;66.69;97375.59;5008073;28;20073;-72
2022/03/10 08:27:14;;;;;;;15.90;7.50;;;;;;;4.48;68.06;97374.31;5011101;28;21676;-71
2022/03/10 08:29:40;;;;;;;19.45;7.72;;;;;;;4.62;66.15;97372.63;5008435;28;20055;-71
2022/03/10 08:32:08;;;;;;;13.00;6.80;;;;;;;4.83;65.98;97370.00;5008265;28;20065;-70
2022/03/10 08:34:35;;;;;;;14.20;6.78;;;;;;;5.07;62.82;97370.63;5010667;28;20070;-71
2022/03/10 08:37:01;;;;;;;15.38;5.70;;;;;;;5.17;60.13;97366.59;5005617;28;20068;-74
2022/03/10 08:39:26;;;;;;;14.63;7.28;;;;;;;5.34;59.72;97356.53;5012952;28;20027;-70
2022/03/10 08:41:53;;;;;;;16.58;7.53;;;;;;;5.43;59.34;97365.16;5006932;28;20074;-73
2022/03/10 08:44:20;;;;;;;12.82;6.10;;;;;;;5.44;58.28;97364.13;5008097;28;20350;-72
2022/03/10 08:46:46;;;;;;;17.33;6.63;;;;;;;5.70;58.45;97369.63;5013335;28;20168;-71
2022/03/10 08:49:13;;;;;;;11.27;6.00;;;;;;;5.89;55.74;97365.44;5039539;28;20041;-71
2022/03/10 08:51:39;;;;;;;17.40;7.07;;;;;;;5.92;57.36;97362.44;5007150;28;20567;-72
2022/03/10 08:54:05;;;;;;;14.50;6.80;;;;;;;6.11;56.30;97368.84;5008645;28;20540;-71
2022/03/10 08:56:31;;;;;;;15.65;7.07;;;;;;;6.27;56.26;97360.53;5013059;28;20048;-74
2022/03/10 08:58:56;;;;;;;14.13;6.10;;;;;;;6.37;53.88;97357.47;5010689;28;20045;-72
2022/03/10 09:01:22;;;;;;;15.95;7.03;;;;;;;6.50;54.73;97360.19;5006996;28;20376;-71
2022/03/10 09:03:47;;;;;;;10.48;5.28;;;;;;;6.58;51.25;97360.00;5006234;28;20034;-74
2022/03/10 09:06:14;;;;;;;8.57;4.97;;;;;;;6.67;50.14;97352.66;5007772;28;20371;-74
2022/03/10 09:08:40;;;;;;;10.80;5.55;;;;;;;6.80;50.50;97355.34;5009576;28;20048;-72
2022/03/10 09:11:06;;;;;;;12.93;6.18;;;;;;;6.88;49.77;97355.16;5010877;28;20045;-72
2022/03/10 09:13:32;;;;;;;12.57;5.50;;;;;;;7.01;48.89;97353.53;5010632;28;20095;-71
2022/03/10 09:15:58;;;;;;;9.82;5.05;;;;;;;7.09;48.22;97346.16;5003828;28;20030;-73
2022/03/10 09:18:23;;;;;;;9.95;5.07;;;;;;;7.24;48.30;97351.28;5008375;28;20040;-73
2022/03/10 09:20:49;;;;;;;12.40;6.15;;;;;;;7.44;73.59;97353.91;5009555;28;20151;-73
2022/03/10 09:23:14;;;;;;;12.02;5.30;;;;;;;7.47;59.35;97334.84;5005664;28;20436;-70
2022/03/10 09:25:40;;;;;;;10.98;5.72;;;;;;;7.60;52.26;97342.00;5038020;28;20089;-74
2022/03/10 09:28:05;;;;;;;8.75;4.97;;;;;;;7.72;53.14;97330.50;5008701;28;20400;-71
2022/03/10 09:30:31;;;;;;;7.75;3.78;;;;;;;7.74;63.50;97330.31;5006489;28;20054;-74
2022/03/10 09:32:57;;;;;;;9.63;5.20;;;;;;;7.73;58.59;97323.34;5007722;28;20025;-74
2022/03/10 09:35:24;;;;;;;11.25;4.65;;;;;;;7.78;49.99;97334.16;4996112;28;20040;-74
2022/03/10 09:37:50;;;;;;;10.10;4.88;;;;;;;7.85;49.09;97331.50;4997336;28;20514;-70
2022/03/10 09:40:16;;;;;;;10.25;5.28;;;;;;;8.04;50.77;97330.63;4999786;28;20550;-71
2022/03/10 09:42:44;;;;;;;9.18;4.82;;;;;;;8.19;49.95;97330.34;5078511;22;20016;-71
2022/03/10 09:45:10;;;;;;;11.27;5.22;;;;;;;8.13;51.16;97324.00;5050756;28;20044;-71
2022/03/10 09:47:37;;;;;;;20.00;6.78;;;;;;;8.29;50.03;97320.03;5052335;28;20091;-71
2022/03/10 09:50:06;;;;;;;12.77;6.20;;;;;;;8.27;50.80;97319.44;5055550;28;20064;-73
2022/03/10 09:52:32;;;;;;;9.13;4.85;;;;;;;8.32;68.21;97314.28;5056786;28;20390;-72
2022/03/10 09:54:59;;;;;;;9.73;4.97;;;;;;;8.27;55.71;97322.94;5051957;28;20032;-70
2022/03/10 09:57:25;;;;;;;12.05;6.15;;;;;;;8.35;55.85;97332.56;5053915;28;20426;-71
2022/03/10 09:59:52;;;;;;;9.80;5.43;;;;;;;8.58;73.08;97322.16;5046125;28;20052;-71
2022/03/10 10:02:18;;;;;;;10.80;5.15;;;;;;;8.71;49.85;97325.78;5051859;28;20144;-73
2022/03/10 10:04:44;;;;;;;14.45;6.50;;;;;;;8.69;49.91;97330.50;5107758;22;20074;-74
2022/03/10 10:07:10;;;;;;;11.13;5.60;;;;;;;8.76;48.20;97332.09;5071313;28;20047;-71
2022/03/10 10:09:45;;;;;;;9.75;5.15;;;;;;;8.93;93.73;97319.06;5073184;28;20039;-71
2022/03/10 10:12:12;;;;;;;12.30;6.20;;;;;;;9.07;52.38;97328.59;5072403;28;20059;-71
2022/03/10 10:14:43;;;;;;;10.63;5.00;;;;;;;9.46;47.46;97329.28;5068784;28;20044;-72
2022/03/10 10:17:10;;;;;;;13.07;7.53;;;;;;;9.95;55.35;97333.69;5070404;28;20045;-73
2022/03/10 10:19:37;;;;;;;9.07;4.80;;;;;;;9.97;44.83;97334.31;5070597;28;20042;-71
2022/03/10 10:22:16;;;;;;;10.90;5.68;;;;;;;10.93;76.00;97331.84;5069831;28;20466;-71
2022/03/10 10:24:50;;;;;;;8.73;5.10;;;;;;;11.60;40.24;97346.63;5070012;28;20062;-71
2022/03/10 10:27:18;;;;;;;11.00;6.15;;;;;;;12.48;38.90;97339.38;5069027;28;20459;-71
2022/03/10 10:29:49;;;;;;;13.90;6.32;;;;;;;13.51;35.68;97340.91;5070946;28;20071;-74
2022/03/10 10:32:24;;;;;;;10.05;5.47;;;;;;;14.04;34.15;97334.16;5070839;28;20044;-71
2022/03/10 10:35:08;;;;;;;15.13;5.30;;;;;;;15.03;38.03;97328.56;5067855;28;20044;-74
2022/03/10 10:37:38;;;;;;;8.68;5.18;;;;;;;16.35;41.29;97333.25;5070649;28;20032;-74
2022/03/10 10:40:05;;;;;;;12.10;4.63;;;;;;;17.48;29.17;97341.31;5070423;28;20481;-72
2022/03/10 10:42:33;;;;;;;13.95;6.05;;;;;;;17.45;28.95;97325.63;5068592;28;20051;-74
2022/03/10 10:45:00;;;;;;;12.48;6.00;;;;;;;18.42;37.75;97322.72;5069104;28;20033;-72
2022/03/10 10:47:29;;;;;;;9.02;4.88;;;;;;;19.71;25.19;97321.63;5074722;28;20493;-75
2022/03/10 10:50:01;;;;;;;10.63;6.30;;;;;;;18.40;26.09;97330.31;5067765;28;20040;-72
2022/03/10 10:52:47;;;;;;;13.43;7.03;;;;;;;19.03;27.67;97329.75;5070028;28;20147;-71
2022/03/10 10:55:13;;;;;;;12.15;6.50;;;;;;;18.80;25.13;97326.63;5069123;28;20052;-71
2022/03/10 10:57:39;;;;;;;12.02;7.40;;;;;;;19.01;26.03;97312.94;5068863;28;20036;-74
2022/03/10 11:00:08;;;;;;;9.80;6.35;;;;;;;18.08;26.39;97323.38;5068607;28;20075;-73
2022/03/10 11:02:35;;;;;;;10.80;6.35;;;;;;;19.88;31.94;97313.84;5070516;28;20047;-71
2022/03/10 11:05:03;;;;;;;10.50;6.18;;;;;;;20.40;24.14;97316.81;5070240;28;20075;-71
2022/03/10 11:07:29;;;;;;;11.40;7.03;;;;;;;20.76;23.66;97303.56;5067722;28;20064;-72
2022/03/10 11:09:54;;;;;;;9.98;6.03;;;;;;;21.88;23.99;97307.25;5070562;28;20044;-75
2022/03/10 11:12:20;;;;;;;10.35;6.60;;;;;;;21.15;22.47;97304.06;5070148;28;20078;-71
2022/03/10 11:14:46;;;;;;;14.10;6.13;;;;;;;22.51;26.89;97310.13;5071895;28;20036;-72
2022/03/10 11:17:13;;;;;;;15.07;6.65;;;;;;;21.79;22.46;97295.41;5067819;28;20044;-71
2022/03/10 11:19:42;;;;;;;12.50;6.07;;;;;;;21.99;27.68;97292.31;5067012;28;20040;-71
2022/03/10 11:22:33;;;;;;;12.05;7.45;;;;;;;22.30;21.92;97291.75;5066293;28;20094;-73
2022/03/10 11:25:20;;;;;;;9.95;6.38;;;;;;;21.55;21.97;97284.69;5072265;28;20557;-72
2022/03/10 11:27:52;;;;;;;11.70;6.35;;;;;;;22.30;21.57;97281.66;5069183;28;20032;-71
2022/03/10 11:30:23;;;;;;;10.93;7.50;;;;;;;23.99;20.38;97282.03;5068495;28;20420;-72
2022/03/10 11:33:02;;;;;;;12.88;7.90;;;;;;;24.17;20.60;97280.97;5067907;28;20067;-75
2022/03/10 11:35:37;;;;;;;12.60;6.70;;;;;;;23.75;20.43;97292.53;5067471;28;20040;-72